Time;durP1;ratioP1;P1;durP2;ratioP2;P2;SDS_P1;SDS_P2;PMS_P1;PMS_P2;Temp;Humidity;BMP_temperature;BMP_pressure;BME280_temperature;BME280_humidity;BME280_pressure;Samples;Min_cycle;Max_cycle;Signal;HPM_P1;HPM_P2
2023/01/10 00:01:07;;;;;;;;;;;20.30;54.70;;;;;;1555632;75;748;-62
2023/01/10 00:03:10;;;;;;;;;;;20.20;54.70;;;;;;1559578;75;1936;-62
2023/01/10 00:05:12;;;;;;;;;;;20.30;55.00;;;;;;1570668;74;644;-62
2023/01/10 00:07:13;;;;;;;;;;;20.30;55.00;;;;;;1552560;75;793;-61
2023/01/10 00:09:15;;;;;;;;;;;20.30;55.10;;;;;;1560041;75;1393;-62
2023/01/10 00:13:37;;;;;;;;;;;20.40;54.60;;;;;;1565087;75;1643;-62
2023/01/10 00:15:39;;;;;;;;;;;20.30;54.50;;;;;;1565981;75;789;-62
2023/01/10 00:17:41;;;;;;;;;;;20.30;54.50;;;;;;1553603;75;657;-62
2023/01/10 00:19:43;;;;;;;;;;;20.40;54.50;;;;;;1565732;74;1135;-62
2023/01/10 00:21:45;;;;;;;;;;;20.40;54.60;;;;;;1562972;75;1918;-62
2023/01/10 00:23:47;;;;;;;;;;;20.30;54.60;;;;;;1561972;75;1676;-62
2023/01/10 00:25:49;;;;;;;;;;;20.30;54.60;;;;;;1572283;75;766;-62
2023/01/10 00:28:39;;;;;;;;;;;20.30;54.60;;;;;;1569177;74;709;-62
2023/01/10 00:30:00;;;;;;;;;;;20.40;54.60;;;;;;1524383;75;1282;-62
2023/01/10 00:32:00;;;;;;;;;;;20.30;54.70;;;;;;1546023;75;1653;-62
2023/01/10 00:34:02;;;;;;;;;;;20.30;54.80;;;;;;1560867;75;722;-62
2023/01/10 00:36:04;;;;;;;;;;;20.30;54.80;;;;;;1564296;75;1571;-62
2023/01/10 00:38:06;;;;;;;;;;;20.30;54.80;;;;;;1568074;75;785;-62
2023/01/10 00:40:09;;;;;;;;;;;20.30;54.80;;;;;;1559243;75;1133;-62
2023/01/10 00:44:31;;;;;;;;;;;20.20;54.90;;;;;;1559732;75;1649;-62
2023/01/10 00:46:33;;;;;;;;;;;20.20;54.80;;;;;;1559988;75;707;-62
2023/01/10 00:48:35;;;;;;;;;;;20.20;54.80;;;;;;1564752;74;1150;-62
2023/01/10 00:50:37;;;;;;;;;;;20.10;55.40;;;;;;1561726;75;1593;-62
2023/01/10 00:52:39;;;;;;;;;;;20.10;55.70;;;;;;1560527;75;698;-62
2023/01/10 00:54:40;;;;;;;;;;;20.10;56.00;;;;;;1555206;75;671;-62
2023/01/10 00:56:42;;;;;;;;;;;20.00;56.00;;;;;;1573820;74;735;-63
2023/01/10 00:58:44;;;;;;;;;;;20.00;56.20;;;;;;1565836;74;1200;-62
2023/01/10 01:00:48;;;;;;;;;;;19.90;56.10;;;;;;1558857;75;760;-62
2023/01/10 01:02:50;;;;;;;;;;;19.90;56.30;;;;;;1564572;75;1932;-62
2023/01/10 01:04:52;;;;;;;;;;;20.00;56.30;;;;;;1565780;75;1365;-62
2023/01/10 01:06:54;;;;;;;;;;;19.90;56.40;;;;;;1551343;75;761;-62
2023/01/10 01:08:56;;;;;;;;;;;20.00;56.30;;;;;;1572647;74;1087;-62
2023/01/10 01:10:58;;;;;;;;;;;19.90;56.30;;;;;;1559114;74;760;-62
2023/01/10 01:13:00;;;;;;;;;;;20.10;56.40;;;;;;1549250;75;777;-62
2023/01/10 01:15:02;;;;;;;;;;;20.00;56.30;;;;;;1538666;76;1136;-62
2023/01/10 01:17:04;;;;;;;;;;;20.00;56.20;;;;;;1562483;75;741;-62
2023/01/10 01:19:06;;;;;;;;;;;20.00;56.20;;;;;;1563283;75;1537;-62
2023/01/10 01:21:08;;;;;;;;;;;19.90;56.20;;;;;;1560814;75;726;-62
2023/01/10 01:23:10;;;;;;;;;;;20.00;56.20;;;;;;1565884;75;1913;-62
2023/01/10 01:25:11;;;;;;;;;;;20.00;56.20;;;;;;1567342;74;728;-62
2023/01/10 01:27:13;;;;;;;;;;;19.90;56.30;;;;;;1559698;75;675;-62
2023/01/10 01:29:15;;;;;;;;;;;19.90;56.30;;;;;;1559409;75;1133;-62
2023/01/10 01:31:17;;;;;;;;;;;20.00;56.30;;;;;;1560944;75;801;-63
2023/01/10 01:33:19;;;;;;;;;;;20.00;56.30;;;;;;1570865;75;1547;-62
2023/01/10 01:35:21;;;;;;;;;;;19.90;56.30;;;;;;1555043;75;806;-62
2023/01/10 01:37:23;;;;;;;;;;;19.90;56.20;;;;;;1559382;75;640;-62
2023/01/10 01:39:24;;;;;;;;;;;20.00;56.30;;;;;;1574670;74;1136;-62
2023/01/10 01:44:03;;;;;;;;;;;20.00;56.30;;;;;;1557635;75;1896;-60
2023/01/10 01:46:05;;;;;;;;;;;19.90;56.30;;;;;;1551178;75;746;-60
2023/01/10 01:48:17;;;;;;;;;;;20.00;56.40;;;;;;1554932;75;1436;-61
2023/01/10 01:50:21;;;;;;;;;;;19.90;56.50;;;;;;1564746;75;1131;-60
2023/01/10 01:52:24;;;;;;;;;;;19.90;56.50;;;;;;1553273;75;1437;-61
2023/01/10 01:54:26;;;;;;;;;;;19.90;56.30;;;;;;1563241;74;762;-62
2023/01/10 01:56:29;;;;;;;;;;;20.00;56.30;;;;;;1565911;75;709;-62
2023/01/10 01:58:39;;;;;;;;;;;20.00;56.20;;;;;;1561833;75;762;-66
2023/01/10 02:00:41;;;;;;;;;;;20.00;56.00;;;;;;1559384;75;1538;-61
2023/01/10 02:02:45;;;;;;;;;;;20.00;55.80;;;;;;1565688;75;1945;-61
2023/01/10 02:04:49;;;;;;;;;;;20.00;55.80;;;;;;1560538;75;2065;-62
2023/01/10 02:06:51;;;;;;;;;;;20.00;55.80;;;;;;1559965;75;1841;-61
2023/01/10 02:08:54;;;;;;;;;;;20.00;55.70;;;;;;1564059;74;1095;-62
2023/01/10 02:11:01;;;;;;;;;;;20.00;55.80;;;;;;1556673;75;1585;-61
2023/01/10 02:13:03;;;;;;;;;;;20.10;55.70;;;;;;1549875;75;671;-61
2023/01/10 02:15:06;;;;;;;;;;;20.10;55.50;;;;;;1559807;75;1557;-61
2023/01/10 02:17:09;;;;;;;;;;;20.10;55.90;;;;;;1561457;75;764;-61
2023/01/10 02:19:12;;;;;;;;;;;20.10;55.90;;;;;;1563102;75;1284;-61
2023/01/10 02:21:25;;;;;;;;;;;20.10;55.70;;;;;;1552815;75;1458;-62
2023/01/10 02:23:34;;;;;;;;;;;20.10;55.60;;;;;;1567773;74;1934;-62
2023/01/10 02:25:50;;;;;;;;;;;20.10;55.60;;;;;;1551835;75;787;-60
2023/01/10 02:28:00;;;;;;;;;;;20.20;55.70;;;;;;1561611;75;869;-62
2023/01/10 02:30:04;;;;;;;;;;;20.10;55.70;;;;;;1555294;75;1481;-62
2023/01/10 02:32:07;;;;;;;;;;;20.10;55.60;;;;;;1564263;75;1801;-62
2023/01/10 02:34:26;;;;;;;;;;;20.20;55.70;;;;;;1519298;75;1012;-62
2023/01/10 02:36:46;;;;;;;;;;;20.10;55.70;;;;;;1580353;75;762;-62
2023/01/10 02:38:52;;;;;;;;;;;20.20;55.50;;;;;;1501353;77;1104;-62
2023/01/10 02:41:14;;;;;;;;;;;20.20;55.60;;;;;;1522058;77;837;-62
2023/01/10 02:43:18;;;;;;;;;;;20.20;55.50;;;;;;1531806;75;1929;-63
2023/01/10 02:45:24;;;;;;;;;;;20.10;55.50;;;;;;1532512;76;717;-62
2023/01/10 02:47:26;;;;;;;;;;;20.10;55.60;;;;;;1545203;76;733;-62
2023/01/10 02:49:28;;;;;;;;;;;20.10;55.60;;;;;;1544350;74;1120;-62
2023/01/10 02:51:35;;;;;;;;;;;20.10;55.70;;;;;;1538451;75;768;-62
2023/01/10 02:53:36;;;;;;;;;;;20.00;56.00;;;;;;1535610;75;1231;-62
2023/01/10 02:55:39;;;;;;;;;;;20.00;56.00;;;;;;1537916;75;1893;-61
2023/01/10 02:57:46;;;;;;;;;;;20.10;56.30;;;;;;1531724;75;1534;-62
2023/01/10 02:59:58;;;;;;;;;;;20.00;56.00;;;;;;1534188;75;1112;-62
2023/01/10 03:02:17;;;;;;;;;;;19.90;56.20;;;;;;1532190;75;770;-62
2023/01/10 03:04:32;;;;;;;;;;;19.90;56.40;;;;;;1529645;76;1940;-62
2023/01/10 03:06:49;;;;;;;;;;;19.90;56.50;;;;;;1536670;75;694;-62
2023/01/10 03:08:59;;;;;;;;;;;19.90;56.40;;;;;;1536354;75;1707;-62
2023/01/10 03:11:05;;;;;;;;;;;19.90;56.60;;;;;;1536461;75;1566;-62
2023/01/10 03:13:09;;;;;;;;;;;19.90;56.80;;;;;;1525709;75;2105;-62
2023/01/10 03:15:11;;;;;;;;;;;19.80;56.90;;;;;;1533818;76;694;-61
2023/01/10 03:17:13;;;;;;;;;;;19.80;57.00;;;;;;1533059;76;661;-66
2023/01/10 03:19:17;;;;;;;;;;;19.80;57.70;;;;;;1542376;75;1119;-62
2023/01/10 03:21:19;;;;;;;;;;;19.80;57.70;;;;;;1527840;75;615;-62
2023/01/10 03:23:21;;;;;;;;;;;19.80;56.90;;;;;;1534826;76;1936;-63
2023/01/10 03:25:23;;;;;;;;;;;19.90;56.80;;;;;;1539064;75;1276;-62
2023/01/10 03:27:45;;;;;;;;;;;19.90;56.70;;;;;;1534156;75;926;-62
2023/01/10 03:29:58;;;;;;;;;;;19.90;57.00;;;;;;1533402;75;1129;-62
2023/01/10 03:32:00;;;;;;;;;;;20.00;56.90;;;;;;1538916;75;2036;-62
2023/01/10 03:34:02;;;;;;;;;;;20.00;56.90;;;;;;1534506;75;722;-63
2023/01/10 03:36:08;;;;;;;;;;;20.00;57.00;;;;;;1531468;75;628;-62
2023/01/10 03:38:12;;;;;;;;;;;19.90;56.90;;;;;;1538988;75;758;-62
2023/01/10 03:40:21;;;;;;;;;;;19.90;56.80;;;;;;1533028;75;1828;-62
2023/01/10 03:42:25;;;;;;;;;;;20.00;56.80;;;;;;1535819;75;814;-62
2023/01/10 03:44:43;;;;;;;;;;;20.00;56.80;;;;;;1526014;75;1937;-62
2023/01/10 03:46:53;;;;;;;;;;;20.00;56.80;;;;;;1534118;76;569;-63
2023/01/10 03:48:55;;;;;;;;;;;19.90;56.80;;;;;;1541752;75;1839;-63
2023/01/10 03:50:57;;;;;;;;;;;20.00;56.70;;;;;;1534613;75;783;-63
2023/01/10 03:52:59;;;;;;;;;;;19.90;56.80;;;;;;1539033;75;1414;-63
2023/01/10 03:55:02;;;;;;;;;;;20.00;56.90;;;;;;1535459;75;771;-63
2023/01/10 03:57:05;;;;;;;;;;;20.00;56.80;;;;;;1532256;75;713;-63
2023/01/10 03:59:06;;;;;;;;;;;20.00;56.80;;;;;;1535197;75;1185;-62
2023/01/10 04:01:08;;;;;;;;;;;19.90;56.80;;;;;;1532069;75;778;-62
2023/01/10 04:03:10;;;;;;;;;;;20.00;56.80;;;;;;1524790;75;1935;-62
2023/01/10 04:05:12;;;;;;;;;;;19.90;56.70;;;;;;1537127;75;769;-62
2023/01/10 04:07:14;;;;;;;;;;;19.90;56.80;;;;;;1540368;75;1525;-62
2023/01/10 04:09:16;;;;;;;;;;;20.00;56.80;;;;;;1537146;75;1153;-62
2023/01/10 04:11:18;;;;;;;;;;;20.00;56.70;;;;;;1534070;76;698;-62
2023/01/10 04:13:19;;;;;;;;;;;19.90;56.80;;;;;;1526112;75;782;-62
2023/01/10 04:15:21;;;;;;;;;;;20.00;56.70;;;;;;1533047;75;732;-62
2023/01/10 04:17:23;;;;;;;;;;;20.00;56.80;;;;;;1533076;75;863;-63
2023/01/10 04:19:25;;;;;;;;;;;19.90;56.80;;;;;;1535352;75;1200;-62
2023/01/10 04:21:27;;;;;;;;;;;19.90;57.70;;;;;;1535322;75;1556;-61
2023/01/10 04:23:29;;;;;;;;;;;20.10;57.10;;;;;;1539521;75;1948;-62
2023/01/10 04:25:31;;;;;;;;;;;20.00;57.00;;;;;;1536549;75;748;-62
2023/01/10 04:27:33;;;;;;;;;;;20.00;57.80;;;;;;1532598;76;716;-62
2023/01/10 04:29:34;;;;;;;;;;;19.90;57.90;;;;;;1537728;75;1126;-62
2023/01/10 04:31:38;;;;;;;;;;;19.90;57.80;;;;;;1527015;75;769;-62
2023/01/10 04:33:40;;;;;;;;;;;19.90;57.80;;;;;;1533822;76;755;-62
2023/01/10 04:35:43;;;;;;;;;;;19.90;57.80;;;;;;1532876;76;1588;-64
2023/01/10 04:37:45;;;;;;;;;;;19.80;57.70;;;;;;1530961;75;2077;-62
2023/01/10 04:39:47;;;;;;;;;;;19.90;57.70;;;;;;1568287;72;228275;-69
2023/01/10 04:41:49;;;;;;;;;;;19.90;57.00;;;;;;1580183;74;627;-71
2023/01/10 04:43:51;;;;;;;;;;;19.90;56.80;;;;;;1585918;74;1941;-71
2023/01/10 04:45:53;;;;;;;;;;;19.90;56.50;;;;;;1588569;73;752;-71
2023/01/10 04:47:55;;;;;;;;;;;20.00;56.60;;;;;;1575079;73;712;-70
2023/01/10 04:49:56;;;;;;;;;;;19.90;56.50;;;;;;1579406;75;1418;-70
2023/01/10 04:51:58;;;;;;;;;;;19.90;56.40;;;;;;1570612;74;690;-70
2023/01/10 04:54:00;;;;;;;;;;;19.90;56.70;;;;;;1560925;74;694;-70
2023/01/10 04:56:03;;;;;;;;;;;19.90;56.50;;;;;;1567702;74;769;-70
2023/01/10 04:58:05;;;;;;;;;;;20.00;56.50;;;;;;1580960;73;623;-69
2023/01/10 05:00:07;;;;;;;;;;;20.00;56.40;;;;;;1581296;74;1095;-70
2023/01/10 05:02:09;;;;;;;;;;;20.00;56.30;;;;;;1574915;75;724;-68
2023/01/10 05:04:11;;;;;;;;;;;20.00;56.20;;;;;;1579888;74;1941;-69
2023/01/10 05:06:13;;;;;;;;;;;20.00;56.10;;;;;;1571457;75;800;-68
2023/01/10 05:08:15;;;;;;;;;;;20.10;56.10;;;;;;1580862;73;686;-70
2023/01/10 05:10:16;;;;;;;;;;;20.00;56.60;;;;;;1576052;74;1173;-70
2023/01/10 05:12:18;;;;;;;;;;;20.00;56.50;;;;;;1579892;74;678;-71
2023/01/10 05:14:20;;;;;;;;;;;20.00;56.40;;;;;;1573788;75;740;-71
2023/01/10 05:16:24;;;;;;;;;;;20.00;56.20;;;;;;1577531;74;701;-70
2023/01/10 05:18:26;;;;;;;;;;;20.00;56.00;;;;;;1573411;75;1442;-71
2023/01/10 05:20:28;;;;;;;;;;;20.00;56.00;;;;;;1577655;73;770;-72
2023/01/10 05:22:30;;;;;;;;;;;20.00;56.00;;;;;;1569156;74;744;-72
2023/01/10 05:24:31;;;;;;;;;;;20.00;55.90;;;;;;1586771;74;1930;-70
2023/01/10 05:26:33;;;;;;;;;;;20.00;55.90;;;;;;1586345;74;694;-70
2023/01/10 05:28:35;;;;;;;;;;;20.00;55.90;;;;;;1555941;75;1130;-71
2023/01/10 05:30:37;;;;;;;;;;;20.00;56.00;;;;;;1596249;74;686;-71
2023/01/10 05:32:39;;;;;;;;;;;20.00;56.00;;;;;;1584888;73;1460;-70
2023/01/10 05:34:41;;;;;;;;;;;20.00;56.10;;;;;;1585579;73;654;-72
2023/01/10 05:36:43;;;;;;;;;;;20.00;56.10;;;;;;1590732;74;607;-70
2023/01/10 05:38:45;;;;;;;;;;;19.90;56.50;;;;;;1583776;74;1139;-70
2023/01/10 05:40:47;;;;;;;;;;;20.00;56.80;;;;;;1578721;74;766;-69
2023/01/10 05:42:48;;;;;;;;;;;20.00;57.80;;;;;;1592068;74;729;-71
2023/01/10 05:44:50;;;;;;;;;;;20.10;57.00;;;;;;1585997;74;1944;-70
2023/01/10 05:46:52;;;;;;;;;;;20.20;56.70;;;;;;1593842;74;1429;-72
2023/01/10 05:48:54;;;;;;;;;;;20.10;56.30;;;;;;1559481;76;1137;-69
2023/01/10 05:50:56;;;;;;;;;;;20.10;56.30;;;;;;1550076;75;781;-70
2023/01/10 05:53:02;;;;;;;;;;;20.10;56.10;;;;;;1559745;74;690;-71
2023/01/10 05:55:02;;;;;;;;;;;20.10;56.20;;;;;;1586964;73;1127;-70
2023/01/10 05:57:03;;;;;;;;;;;20.00;56.40;;;;;;1559367;76;782;-68
2023/01/10 05:59:05;;;;;;;;;;;20.10;56.30;;;;;;1564206;75;1182;-67
2023/01/10 06:01:08;;;;;;;;;;;20.00;56.30;;;;;;1562622;75;1469;-69
2023/01/10 06:03:10;;;;;;;;;;;20.00;58.40;;;;;;1539016;76;680;-70
2023/01/10 06:05:12;;;;;;;;;;;20.00;57.00;;;;;;1576553;74;1926;-70
2023/01/10 06:07:14;;;;;;;;;;;20.00;56.60;;;;;;1582343;74;592;-70
2023/01/10 06:09:16;;;;;;;;;;;20.00;56.40;;;;;;1581296;74;1188;-72
2023/01/10 06:11:17;;;;;;;;;;;20.00;56.30;;;;;;1582357;74;721;-72
2023/01/10 06:13:19;;;;;;;;;;;20.00;56.30;;;;;;1577932;74;735;-66
2023/01/10 06:15:21;;;;;;;;;;;20.00;57.00;;;;;;1576468;74;1566;-65
2023/01/10 06:17:23;;;;;;;;;;;20.00;56.90;;;;;;1573182;74;722;-66
2023/01/10 06:19:25;;;;;;;;;;;20.00;56.90;;;;;;1570493;74;1078;-66
2023/01/10 06:21:27;;;;;;;;;;;20.10;56.70;;;;;;1584030;74;709;-66
2023/01/10 06:23:29;;;;;;;;;;;20.20;56.40;;;;;;1581265;74;815;-68
2023/01/10 06:25:34;;;;;;;;;;;20.10;56.20;;;;;;1555616;76;1905;-67
2023/01/10 06:27:38;;;;;;;;;;;20.10;56.00;;;;;;1586067;74;1651;-66
2023/01/10 06:29:40;;;;;;;;;;;20.00;55.90;;;;;;1581772;73;1152;-66
2023/01/10 06:31:42;;;;;;;;;;;20.00;55.90;;;;;;1576672;73;769;-66
2023/01/10 06:33:44;;;;;;;;;;;20.00;55.70;;;;;;1581519;73;645;-67
2023/01/10 06:35:47;;;;;;;;;;;20.10;56.00;;;;;;1596101;73;767;-69
2023/01/10 06:37:48;;;;;;;;;;;20.20;55.80;;;;;;1591133;73;712;-67
2023/01/10 06:39:50;;;;;;;;;;;20.20;55.70;;;;;;1569216;74;1093;-66
2023/01/10 06:41:52;;;;;;;;;;;20.20;55.60;;;;;;1556465;75;1499;-75
2023/01/10 06:43:54;;;;;;;;;;;20.30;55.60;;;;;;1569506;75;1934;-68
2023/01/10 06:45:56;;;;;;;;;;;20.10;55.60;;;;;;1541895;75;714;-66
2023/01/10 06:47:58;;;;;;;;;;;20.10;55.70;;;;;;1559025;75;796;-67
2023/01/10 06:50:00;;;;;;;;;;;20.10;55.70;;;;;;1551136;76;1122;-66
2023/01/10 06:52:02;;;;;;;;;;;20.00;55.60;;;;;;1583009;75;784;-67
2023/01/10 06:54:04;;;;;;;;;;;20.00;55.70;;;;;;1587843;74;725;-64
2023/01/10 06:56:07;;;;;;;;;;;20.10;55.40;;;;;;1579406;74;1473;-66
2023/01/10 06:58:09;;;;;;;;;;;20.00;55.00;;;;;;1577942;73;746;-68
2023/01/10 07:00:11;;;;;;;;;;;20.10;55.00;;;;;;1583767;74;1140;-67
2023/01/10 07:02:13;;;;;;;;;;;20.00;54.80;;;;;;1584405;74;860;-67
2023/01/10 07:04:15;;;;;;;;;;;20.00;54.80;;;;;;1582170;74;1916;-67
2023/01/10 07:06:17;;;;;;;;;;;19.90;54.70;;;;;;1570518;74;691;-67
2023/01/10 07:08:19;;;;;;;;;;;20.00;54.70;;;;;;1582277;74;571;-67
2023/01/10 07:10:21;;;;;;;;;;;20.00;54.70;;;;;;1585057;74;1436;-66
2023/01/10 07:12:22;;;;;;;;;;;20.00;54.70;;;;;;1579644;74;790;-73
2023/01/10 07:14:24;;;;;;;;;;;20.00;54.60;;;;;;1584838;74;724;-65
2023/01/10 07:16:26;;;;;;;;;;;20.00;54.50;;;;;;1577332;74;748;-65
2023/01/10 07:18:28;;;;;;;;;;;19.90;54.60;;;;;;1558167;75;1148;-65
2023/01/10 07:20:30;;;;;;;;;;;19.90;54.50;;;;;;1562861;74;781;-64
2023/01/10 07:22:32;;;;;;;;;;;19.90;54.40;;;;;;1572090;74;768;-65
2023/01/10 07:24:34;;;;;;;;;;;19.90;54.40;;;;;;1576614;74;1934;-67
2023/01/10 07:26:35;;;;;;;;;;;19.90;54.40;;;;;;1585335;74;772;-66
2023/01/10 07:28:37;;;;;;;;;;;20.00;54.40;;;;;;1556509;76;1135;-63
2023/01/10 07:30:39;;;;;;;;;;;20.00;54.30;;;;;;1557497;75;1061;-66
2023/01/10 07:32:41;;;;;;;;;;;20.00;54.40;;;;;;1583737;73;696;-66
2023/01/10 07:34:43;;;;;;;;;;;19.90;54.40;;;;;;1585073;73;767;-66
2023/01/10 07:36:45;;;;;;;;;;;19.90;53.30;;;;;;1584844;73;738;-67
2023/01/10 07:38:47;;;;;;;;;;;19.80;53.40;;;;;;1589872;73;1457;-67
2023/01/10 07:40:49;;;;;;;;;;;19.80;52.80;;;;;;1565685;74;728;-65
2023/01/10 07:42:52;;;;;;;;;;;19.80;52.20;;;;;;1567429;75;654;-65
2023/01/10 07:44:54;;;;;;;;;;;19.90;51.80;;;;;;1539627;76;2020;-63
2023/01/10 07:46:56;;;;;;;;;;;19.80;50.80;;;;;;1547831;75;770;-66
2023/01/10 07:48:58;;;;;;;;;;;19.80;51.10;;;;;;1559861;75;1148;-65
2023/01/10 07:51:00;;;;;;;;;;;19.80;50.80;;;;;;1573007;75;738;-66
2023/01/10 07:53:02;;;;;;;;;;;19.70;50.90;;;;;;1577169;74;1558;-63
2023/01/10 07:55:05;;;;;;;;;;;19.70;50.50;;;;;;1572520;74;682;-65
2023/01/10 07:57:06;;;;;;;;;;;19.70;50.00;;;;;;1576919;74;686;-65
2023/01/10 07:59:08;;;;;;;;;;;19.70;49.60;;;;;;1572807;74;1144;-66
2023/01/10 08:01:10;;;;;;;;;;;19.70;49.60;;;;;;1568461;74;763;-64
2023/01/10 08:03:12;;;;;;;;;;;19.60;49.40;;;;;;1571639;73;784;-66
2023/01/10 08:05:14;;;;;;;;;;;19.70;49.30;;;;;;1567216;74;1905;-65
2023/01/10 08:07:16;;;;;;;;;;;19.60;49.00;;;;;;1550402;75;1457;-65
2023/01/10 08:09:18;;;;;;;;;;;19.70;49.00;;;;;;1589834;74;1141;-65
2023/01/10 08:11:20;;;;;;;;;;;19.60;48.80;;;;;;1585656;74;663;-66
2023/01/10 08:13:22;;;;;;;;;;;19.60;48.60;;;;;;1559363;76;791;-66
2023/01/10 08:15:24;;;;;;;;;;;19.60;48.60;;;;;;1554640;76;766;-66
2023/01/10 08:17:25;;;;;;;;;;;19.60;48.40;;;;;;1552047;76;771;-66
2023/01/10 08:19:27;;;;;;;;;;;19.60;48.50;;;;;;1576599;73;1146;-65
2023/01/10 08:21:29;;;;;;;;;;;19.50;48.30;;;;;;1538254;76;1483;-65
2023/01/10 08:23:31;;;;;;;;;;;19.50;48.20;;;;;;1551697;75;707;-66
2023/01/10 08:25:33;;;;;;;;;;;19.50;48.60;;;;;;1556018;76;1931;-65
2023/01/10 08:27:35;;;;;;;;;;;19.50;48.60;;;;;;1550964;75;703;-65
2023/01/10 08:29:37;;;;;;;;;;;19.50;49.20;;;;;;1552597;76;1122;-67
2023/01/10 08:31:40;;;;;;;;;;;19.40;48.50;;;;;;1555838;76;606;-65
2023/01/10 08:33:42;;;;;;;;;;;19.50;48.20;;;;;;1584759;74;774;-67
2023/01/10 08:35:44;;;;;;;;;;;19.40;48.40;;;;;;1580654;74;1410;-66
2023/01/10 08:37:45;;;;;;;;;;;19.40;48.90;;;;;;1567669;74;788;-67
2023/01/10 08:39:47;;;;;;;;;;;19.50;48.40;;;;;;1575667;75;1134;-67
2023/01/10 08:41:49;;;;;;;;;;;19.40;48.40;;;;;;1574115;75;779;-67
2023/01/10 08:43:51;;;;;;;;;;;19.50;48.30;;;;;;1580094;75;689;-66
2023/01/10 08:45:53;;;;;;;;;;;19.40;48.30;;;;;;1571435;74;1938;-65
2023/01/10 08:47:55;;;;;;;;;;;19.40;48.30;;;;;;1577192;74;703;-67
2023/01/10 08:49:57;;;;;;;;;;;19.40;48.00;;;;;;1580176;75;1359;-66
2023/01/10 08:52:01;;;;;;;;;;;19.30;48.40;;;;;;1571815;74;580;-66
2023/01/10 08:54:02;;;;;;;;;;;19.40;48.20;;;;;;1574360;75;799;-67
2023/01/10 08:56:05;;;;;;;;;;;19.40;48.80;;;;;;1575492;75;714;-66
2023/01/10 08:58:07;;;;;;;;;;;19.30;48.20;;;;;;1577444;74;791;-67
2023/01/10 09:00:11;;;;;;;;;;;19.40;48.00;;;;;;1577093;75;1110;-66
2023/01/10 09:02:13;;;;;;;;;;;19.40;48.40;;;;;;1585022;74;1613;-67
2023/01/10 09:04:16;;;;;;;;;;;19.30;48.10;;;;;;1553515;75;808;-69
2023/01/10 09:06:26;;;;;;;;;;;19.40;47.80;;;;;;1558292;75;1927;-66
2023/01/10 09:08:28;;;;;;;;;;;19.30;48.80;;;;;;1576922;74;1166;-66
2023/01/10 09:10:30;;;;;;;;;;;19.30;49.20;;;;;;1559886;75;722;-67
2023/01/10 09:14:52;;;;;;;;;;;19.30;47.90;;;;;;1582596;74;1656;-65
2023/01/10 09:16:54;;;;;;;;;;;19.30;47.80;;;;;;1596094;74;1405;-65
2023/01/10 09:18:56;;;;;;;;;;;19.30;48.20;;;;;;1589704;74;1144;-66
2023/01/10 09:20:57;;;;;;;;;;;19.30;48.40;;;;;;1547877;76;698;-66
2023/01/10 09:23:01;;;;;;;;;;;19.30;48.50;;;;;;1593700;74;797;-67
2023/01/10 09:25:03;;;;;;;;;;;19.30;48.40;;;;;;1551360;76;1921;-65
2023/01/10 09:27:05;;;;;;;;;;;19.30;48.30;;;;;;1554289;76;725;-65
2023/01/10 09:29:07;;;;;;;;;;;19.30;48.10;;;;;;1570849;73;1139;-65
2023/01/10 09:31:10;;;;;;;;;;;19.30;48.10;;;;;;1582018;73;1458;-66
2023/01/10 09:33:12;;;;;;;;;;;19.30;48.10;;;;;;1567480;73;774;-67
2023/01/10 09:35:14;;;;;;;;;;;19.20;48.10;;;;;;1568066;73;760;-64
2023/01/10 09:37:16;;;;;;;;;;;19.30;47.90;;;;;;1578217;73;657;-64
2023/01/10 09:39:18;;;;;;;;;;;19.20;48.60;;;;;;1558317;75;1157;-65
2023/01/10 09:41:25;;;;;;;;;;;19.30;49.20;;;;;;1561852;74;777;-66
2023/01/10 09:43:28;;;;;;;;;;;19.40;49.10;;;;;;1553659;75;2008;-66
2023/01/10 09:45:32;;;;;;;;;;;19.40;49.30;;;;;;1568935;75;1942;-64
2023/01/10 09:47:53;;;;;;;;;;;19.50;49.20;;;;;;1566641;75;710;-64
2023/01/10 09:49:57;;;;;;;;;;;19.60;49.30;;;;;;1532848;76;1133;-65
2023/01/10 09:51:59;;;;;;;;;;;19.60;49.20;;;;;;1523128;76;1804;-65
2023/01/10 09:54:01;;;;;;;;;;;19.70;49.40;;;;;;1522144;76;818;-64
2023/01/10 09:56:05;;;;;;;;;;;19.80;49.40;;;;;;1564559;74;932;-63
2023/01/10 09:58:15;;;;;;;;;;;19.70;49.40;;;;;;1576377;74;736;-65
2023/01/10 10:00:18;;;;;;;;;;;19.80;49.50;;;;;;1581560;74;1468;-66
2023/01/10 10:02:22;;;;;;;;;;;19.80;49.50;;;;;;1571529;75;754;-66
2023/01/10 10:04:36;;;;;;;;;;;19.80;49.50;;;;;;1573809;73;698;-65
2023/01/10 10:06:38;;;;;;;;;;;19.80;49.50;;;;;;1576160;73;1932;-65
2023/01/10 10:08:43;;;;;;;;;;;19.80;49.60;;;;;;1572097;74;1173;-65
2023/01/10 10:10:49;;;;;;;;;;;19.80;49.70;;;;;;1581907;74;725;-66
2023/01/10 10:12:53;;;;;;;;;;;19.90;49.80;;;;;;1579467;73;1419;-66
2023/01/10 10:15:05;;;;;;;;;;;19.90;49.90;;;;;;1570228;74;1711;-67
2023/01/10 10:17:09;;;;;;;;;;;19.90;49.90;;;;;;1573152;73;2113;-67
2023/01/10 10:19:18;;;;;;;;;;;19.90;50.00;;;;;;1582415;73;1145;-66
2023/01/10 10:21:25;;;;;;;;;;;20.00;50.00;;;;;;1578285;73;1361;-66
2023/01/10 10:23:40;;;;;;;;;;;19.90;50.00;;;;;;1580735;74;1870;-64
2023/01/10 10:25:50;;;;;;;;;;;20.00;50.10;;;;;;1579371;75;1927;-65
2023/01/10 10:28:02;;;;;;;;;;;20.00;50.10;;;;;;1579824;74;1906;-65
2023/01/10 10:30:06;;;;;;;;;;;20.00;50.10;;;;;;1582073;74;1980;-65
2023/01/10 10:32:09;;;;;;;;;;;19.90;50.20;;;;;;1549882;76;1083;-64
2023/01/10 10:34:15;;;;;;;;;;;20.00;50.20;;;;;;1555765;74;1820;-65
2023/01/10 10:36:22;;;;;;;;;;;20.00;50.20;;;;;;1596445;73;1772;-66
2023/01/10 10:38:32;;;;;;;;;;;20.00;50.20;;;;;;1581219;73;686;-65
2023/01/10 10:40:34;;;;;;;;;;;20.00;50.20;;;;;;1531153;72;224691;-60
2023/01/10 10:42:36;;;;;;;;;;;20.00;50.20;;;;;;1490961;77;1545;-60
2023/01/10 10:44:39;;;;;;;;;;;19.90;50.20;;;;;;1493890;77;701;-60
2023/01/10 10:46:41;;;;;;;;;;;20.00;50.20;;;;;;1488715;77;1946;-61
2023/01/10 10:48:50;;;;;;;;;;;20.00;50.30;;;;;;1464744;78;1190;-61
2023/01/10 10:51:00;;;;;;;;;;;20.00;50.20;;;;;;1522755;76;1915;-61
2023/01/10 10:53:02;;;;;;;;;;;20.00;50.20;;;;;;1513129;76;628;-61
2023/01/10 10:55:04;;;;;;;;;;;20.00;50.40;;;;;;1524024;76;1598;-61
2023/01/10 10:57:06;;;;;;;;;;;20.00;50.50;;;;;;1521136;76;746;-61
2023/01/10 10:59:08;;;;;;;;;;;20.00;50.50;;;;;;1520573;76;1143;-60
2023/01/10 11:01:11;;;;;;;;;;;19.90;50.70;;;;;;1516490;76;813;-60
2023/01/10 11:03:34;;;;;;;;;;;20.00;50.60;;;;;;1519071;76;720;-61
2023/01/10 11:05:37;;;;;;;;;;;20.00;50.70;;;;;;1521809;76;1936;-61
2023/01/10 11:07:39;;;;;;;;;;;19.90;50.70;;;;;;1521947;76;1713;-60
2023/01/10 11:10:31;;;;;;;;;;;19.90;50.80;;;;;;1519315;76;1554;-61
2023/01/10 11:11:46;;;;;;;;;;;19.90;50.80;;;;;;1497839;76;1398;-61
2023/01/10 11:13:54;;;;;;;;;;;19.90;50.90;;;;;;1518547;77;715;-60
2023/01/10 11:15:56;;;;;;;;;;;19.90;51.00;;;;;;1519755;76;792;-60
2023/01/10 11:18:05;;;;;;;;;;;19.90;51.10;;;;;;1532793;76;734;-61
2023/01/10 11:20:08;;;;;;;;;;;19.80;51.00;;;;;;1523496;76;1120;-61
2023/01/10 11:22:12;;;;;;;;;;;19.80;51.10;;;;;;1516331;76;1838;-61
2023/01/10 11:24:18;;;;;;;;;;;19.80;51.20;;;;;;1517689;76;1584;-61
2023/01/10 11:26:24;;;;;;;;;;;19.80;51.20;;;;;;1522367;76;1922;-61
2023/01/10 11:28:28;;;;;;;;;;;19.80;51.30;;;;;;1527268;76;774;-61
2023/01/10 11:30:33;;;;;;;;;;;19.90;51.40;;;;;;1521071;76;1071;-61
2023/01/10 11:32:42;;;;;;;;;;;19.90;51.50;;;;;;1528502;76;726;-61
2023/01/10 11:34:49;;;;;;;;;;;19.90;51.50;;;;;;1515470;76;1812;-61
2023/01/10 11:36:57;;;;;;;;;;;19.80;51.40;;;;;;1525010;76;832;-61
2023/01/10 11:39:01;;;;;;;;;;;19.80;51.40;;;;;;1509357;76;1140;-61
2023/01/10 11:41:07;;;;;;;;;;;19.80;51.40;;;;;;1517410;76;1051;-61
2023/01/10 11:43:23;;;;;;;;;;;19.90;51.50;;;;;;1511964;76;756;-61
2023/01/10 11:45:26;;;;;;;;;;;19.80;51.50;;;;;;1507126;76;1870;-60
2023/01/10 11:47:27;;;;;;;;;;;19.90;51.60;;;;;;1518265;76;841;-60
2023/01/10 11:49:34;;;;;;;;;;;19.90;51.60;;;;;;1514598;76;1143;-60
2023/01/10 11:51:36;;;;;;;;;;;19.90;51.60;;;;;;1501793;77;1532;-61
2023/01/10 11:53:39;;;;;;;;;;;19.90;51.60;;;;;;1512222;76;749;-60
2023/01/10 11:55:42;;;;;;;;;;;19.80;51.50;;;;;;1517977;76;698;-60
2023/01/10 11:57:44;;;;;;;;;;;19.90;51.60;;;;;;1511131;76;1901;-60
2023/01/10 11:59:59;;;;;;;;;;;20.00;51.60;;;;;;1513222;76;1196;-60
2023/01/10 12:02:03;;;;;;;;;;;19.90;51.60;;;;;;1514703;76;667;-63
2023/01/10 12:04:05;;;;;;;;;;;19.90;51.70;;;;;;1510609;76;711;-61
2023/01/10 12:06:08;;;;;;;;;;;19.90;51.70;;;;;;1513891;76;1934;-61
2023/01/10 12:08:10;;;;;;;;;;;19.90;51.60;;;;;;1512620;76;754;-60
2023/01/10 12:10:14;;;;;;;;;;;19.90;51.70;;;;;;1485435;77;1200;-60
2023/01/10 12:12:20;;;;;;;;;;;19.90;51.70;;;;;;1517159;76;1003;-61
2023/01/10 12:14:22;;;;;;;;;;;19.90;51.60;;;;;;1499052;77;1965;-61
2023/01/10 12:16:28;;;;;;;;;;;19.90;51.70;;;;;;1508826;76;703;-60
2023/01/10 12:18:30;;;;;;;;;;;19.90;51.60;;;;;;1510847;76;767;-60
2023/01/10 12:20:33;;;;;;;;;;;19.90;51.70;;;;;;1512600;76;1541;-61
2023/01/10 12:22:37;;;;;;;;;;;19.90;51.70;;;;;;1516975;76;1794;-61
2023/01/10 12:24:39;;;;;;;;;;;19.90;51.70;;;;;;1512423;76;1293;-60